Time;durP1;ratioP1;P1;durP2;ratioP2;P2;SDS_P1;SDS_P2;PMS_P1;PMS_P2;Temp;Humidity;BMP_temperature;BMP_pressure;BME280_temperature;BME280_humidity;BME280_pressure;Samples;Min_cycle;Max_cycle;Signal;HPM_P1;HPM_P2
2021/07/06 00:00:55;;;;;;;6.20;1.33;;;19.40;99.90;;;;;;5123155;28;20541;-81
2021/07/06 00:03:22;;;;;;;8.20;1.67;;;19.40;99.90;;;;;;5124870;28;20441;-82
2021/07/06 00:05:49;;;;;;;6.30;1.43;;;19.30;99.90;;;;;;5125393;28;20473;-81
2021/07/06 00:08:16;;;;;;;5.50;1.03;;;19.30;99.90;;;;;;5125191;28;20547;-82
2021/07/06 00:10:43;;;;;;;5.90;1.30;;;19.30;99.90;;;;;;5125226;28;20441;-82
2021/07/06 00:13:10;;;;;;;8.17;1.13;;;19.30;99.90;;;;;;5124766;28;20477;-82
2021/07/06 00:15:38;;;;;;;6.33;1.43;;;19.30;99.90;;;;;;5124577;28;20528;-82
2021/07/06 00:18:06;;;;;;;6.87;1.40;;;19.40;99.90;;;;;;5124782;28;20535;-82
2021/07/06 00:20:33;;;;;;;6.10;1.57;;;19.30;99.90;;;;;;5123719;28;20886;-82
2021/07/06 00:23:03;;;;;;;6.30;1.90;;;19.40;99.90;;;;;;5124954;28;20518;-81
2021/07/06 00:25:32;;;;;;;6.37;2.07;;;19.30;99.90;;;;;;5124087;28;20457;-81
2021/07/06 00:27:59;;;;;;;6.30;1.40;;;19.30;99.90;;;;;;5125295;28;20509;-81
2021/07/06 00:30:26;;;;;;;6.97;1.30;;;19.30;99.90;;;;;;5124928;28;20541;-82
2021/07/06 00:32:54;;;;;;;5.80;1.40;;;19.30;99.90;;;;;;5123650;28;20549;-82
2021/07/06 00:35:22;;;;;;;21.03;2.30;;;19.30;99.90;;;;;;5123794;28;20533;-81
2021/07/06 00:37:49;;;;;;;5.83;1.40;;;19.30;99.90;;;;;;5123574;28;20469;-82
2021/07/06 00:40:16;;;;;;;10.50;2.20;;;19.30;99.90;;;;;;5124504;28;20473;-82
2021/07/06 00:42:45;;;;;;;5.50;1.20;;;19.30;99.90;;;;;;5124266;28;20505;-82
2021/07/06 00:45:14;;;;;;;7.60;1.50;;;19.30;99.90;;;;;;5123630;28;20536;-82
2021/07/06 00:47:43;;;;;;;12.53;1.80;;;19.30;99.90;;;;;;5122875;28;20573;-83
2021/07/06 00:50:14;;;;;;;6.30;1.57;;;19.30;99.90;;;;;;5123665;28;21044;-82
2021/07/06 00:52:42;;;;;;;6.70;1.30;;;19.30;99.90;;;;;;5123521;28;20479;-83
2021/07/06 00:55:10;;;;;;;7.60;1.50;;;19.30;99.90;;;;;;5123385;28;20449;-83
2021/07/06 00:57:38;;;;;;;5.87;1.60;;;19.30;99.90;;;;;;5123008;28;20469;-82
2021/07/06 01:00:07;;;;;;;5.90;1.47;;;19.30;99.90;;;;;;5123991;28;20443;-82
2021/07/06 01:02:34;;;;;;;7.23;1.40;;;19.20;99.90;;;;;;5124010;28;20437;-83
2021/07/06 01:05:01;;;;;;;6.30;1.30;;;19.20;99.90;;;;;;5124576;28;20460;-83
2021/07/06 01:07:27;;;;;;;6.23;1.40;;;19.20;99.90;;;;;;5124755;28;20553;-83
2021/07/06 01:09:56;;;;;;;6.03;1.50;;;19.20;99.90;;;;;;5123278;28;20513;-83
2021/07/06 01:12:23;;;;;;;6.27;1.50;;;19.20;99.90;;;;;;5123723;28;20433;-83
2021/07/06 01:14:50;;;;;;;8.37;1.27;;;19.20;99.90;;;;;;5123655;28;20457;-82
2021/07/06 01:17:26;;;;;;;8.07;1.57;;;19.20;99.90;;;;;;5123962;28;20482;-83
2021/07/06 01:19:53;;;;;;;5.80;1.30;;;19.20;99.90;;;;;;5124081;28;20961;-82
2021/07/06 01:22:28;;;;;;;6.40;1.40;;;19.20;99.90;;;;;;5119995;28;20461;-83
2021/07/06 01:24:55;;;;;;;7.40;1.40;;;19.20;99.90;;;;;;5124681;28;20951;-82
2021/07/06 01:27:22;;;;;;;7.27;1.23;;;19.20;99.90;;;;;;5122703;28;20464;-83
2021/07/06 01:29:49;;;;;;;5.87;1.73;;;19.20;99.90;;;;;;5123320;28;20458;-83
2021/07/06 01:32:17;;;;;;;7.60;1.60;;;19.30;99.90;;;;;;5112560;28;20446;-82
2021/07/06 01:34:43;;;;;;;6.37;1.50;;;19.30;99.90;;;;;;5123244;28;20485;-83
2021/07/06 01:37:10;;;;;;;5.50;1.10;;;19.30;99.90;;;;;;5125051;28;20502;-83
2021/07/06 01:39:39;;;;;;;6.30;1.13;;;19.30;99.90;;;;;;5124320;28;20513;-84
2021/07/06 01:42:06;;;;;;;5.50;1.23;;;19.30;99.90;;;;;;5124940;28;20496;-84
2021/07/06 01:44:33;;;;;;;5.40;1.10;;;19.30;99.90;;;;;;5124562;28;20510;-83
2021/07/06 01:47:00;;;;;;;6.20;1.33;;;19.30;99.90;;;;;;5124008;28;20473;-82
2021/07/06 01:49:26;;;;;;;6.70;1.27;;;19.30;99.90;;;;;;5122886;28;20441;-83
2021/07/06 01:51:53;;;;;;;6.13;1.20;;;19.20;99.90;;;;;;5122604;28;20452;-83
2021/07/06 01:54:20;;;;;;;6.17;1.10;;;19.20;99.90;;;;;;5123906;28;20483;-83
2021/07/06 01:56:49;;;;;;;6.50;1.30;;;19.20;99.90;;;;;;5123817;28;20477;-83
2021/07/06 01:59:16;;;;;;;6.23;1.50;;;19.20;99.90;;;;;;5123473;28;20445;-83
2021/07/06 02:01:45;;;;;;;5.63;1.27;;;19.20;99.90;;;;;;5123669;28;20449;-84
2021/07/06 02:04:13;;;;;;;7.00;1.37;;;19.20;99.90;;;;;;5124384;28;20452;-83
2021/07/06 02:06:40;;;;;;;8.20;1.17;;;19.20;99.90;;;;;;5122601;28;20480;-83
2021/07/06 02:09:08;;;;;;;5.23;1.07;;;19.20;99.90;;;;;;5121590;28;20488;-83
2021/07/06 02:11:34;;;;;;;5.87;1.20;;;19.20;99.90;;;;;;5122664;28;21189;-83
2021/07/06 02:14:04;;;;;;;5.87;1.40;;;19.20;99.90;;;;;;5122854;28;20481;-84
2021/07/06 02:16:31;;;;;;;5.40;1.00;;;19.20;99.90;;;;;;5122183;28;20499;-82
2021/07/06 02:18:58;;;;;;;7.20;1.47;;;19.20;99.90;;;;;;5122051;28;20441;-83
2021/07/06 02:21:25;;;;;;;5.70;1.00;;;19.20;99.90;;;;;;5122953;28;20532;-82
2021/07/06 02:24:06;;;;;;;6.57;1.20;;;19.10;99.90;;;;;;5122217;28;20455;-80
2021/07/06 02:26:32;;;;;;;5.93;1.27;;;19.10;99.90;;;;;;5120847;28;21051;-82
2021/07/06 02:28:59;;;;;;;5.30;1.00;;;19.10;99.90;;;;;;5121179;28;20521;-82
2021/07/06 02:31:30;;;;;;;6.43;1.20;;;19.10;99.90;;;;;;5123914;28;20505;-81
2021/07/06 02:33:57;;;;;;;5.60;1.17;;;19.00;99.90;;;;;;5123935;28;20473;-83
2021/07/06 02:36:23;;;;;;;6.00;1.07;;;19.00;99.90;;;;;;5123213;28;20540;-84
2021/07/06 02:38:53;;;;;;;6.60;1.47;;;18.90;99.90;;;;;;5113950;28;20522;-82
2021/07/06 02:41:20;;;;;;;5.40;1.00;;;18.90;99.90;;;;;;5107190;28;20469;-83
2021/07/06 02:43:47;;;;;;;7.00;1.20;;;18.90;99.90;;;;;;5121883;28;20484;-82
2021/07/06 02:46:13;;;;;;;6.23;1.40;;;18.90;99.90;;;;;;5121931;28;20540;-82
2021/07/06 02:48:42;;;;;;;5.53;1.03;;;18.90;99.90;;;;;;5121765;28;20901;-83
2021/07/06 02:51:08;;;;;;;6.50;1.60;;;18.80;99.90;;;;;;5121443;28;20505;-84
2021/07/06 02:53:35;;;;;;;7.57;1.70;;;18.80;99.90;;;;;;5120936;28;20481;-83
2021/07/06 02:56:02;;;;;;;6.20;1.20;;;18.80;99.90;;;;;;5122742;28;20505;-83
2021/07/06 02:58:29;;;;;;;6.13;1.30;;;18.80;99.90;;;;;;5122257;28;20516;-83
2021/07/06 03:00:55;;;;;;;5.90;1.43;;;18.90;99.90;;;;;;5122639;28;20541;-82
2021/07/06 03:03:29;;;;;;;6.27;1.37;;;18.90;99.90;;;;;;5123471;28;20834;-81
2021/07/06 03:05:57;;;;;;;6.00;1.30;;;18.90;99.90;;;;;;5123144;28;20501;-84
2021/07/06 03:08:25;;;;;;;7.57;1.50;;;18.90;99.90;;;;;;5122870;28;20453;-83
2021/07/06 03:10:52;;;;;;;6.13;1.20;;;18.90;99.90;;;;;;5122624;28;20457;-84
2021/07/06 03:16:00;;;;;;;6.63;1.30;;;18.90;99.90;;;;;;5118974;28;20465;-83
2021/07/06 03:18:32;;;;;;;5.50;1.27;;;18.90;99.90;;;;;;5121968;28;20496;-82
2021/07/06 03:21:00;;;;;;;5.63;1.30;;;18.90;99.90;;;;;;5122486;28;20490;-82
2021/07/06 03:23:28;;;;;;;6.00;1.37;;;18.90;99.90;;;;;;5124583;28;20461;-85
2021/07/06 03:25:55;;;;;;;6.20;1.20;;;18.90;99.90;;;;;;5127208;28;20548;-82
2021/07/06 03:28:22;;;;;;;9.97;1.30;;;18.90;99.90;;;;;;5125446;28;21021;-83
2021/07/06 03:30:57;;;;;;;5.80;1.10;;;18.90;99.90;;;;;;5126855;28;20443;-82
2021/07/06 03:33:24;;;;;;;6.10;1.30;;;18.90;99.90;;;;;;5126084;28;20506;-83
2021/07/06 03:35:51;;;;;;;6.07;1.30;;;19.00;99.90;;;;;;5127266;28;20500;-83
2021/07/06 03:38:25;;;;;;;6.60;1.33;;;19.00;99.90;;;;;;5126340;28;20506;-82
2021/07/06 03:40:52;;;;;;;5.70;1.20;;;19.00;99.90;;;;;;5126860;28;20445;-83
2021/07/06 03:43:19;;;;;;;5.67;1.33;;;19.00;99.90;;;;;;5126107;28;20448;-84
2021/07/06 03:45:45;;;;;;;7.87;1.20;;;19.00;99.90;;;;;;5126627;28;20537;-83
2021/07/06 03:48:12;;;;;;;6.17;1.20;;;19.00;99.90;;;;;;5125894;28;20497;-83
2021/07/06 03:50:40;;;;;;;6.10;1.20;;;19.00;99.90;;;;;;5125193;28;20453;-83
2021/07/06 03:53:07;;;;;;;7.80;1.20;;;19.00;99.90;;;;;;5128885;28;20536;-82
2021/07/06 03:55:35;;;;;;;7.60;1.50;;;19.00;99.90;;;;;;5138440;27;20441;-83
2021/07/06 03:58:02;;;;;;;7.33;1.53;;;19.00;99.90;;;;;;5142112;27;20425;-87
2021/07/06 04:00:31;;;;;;;6.30;1.43;;;19.00;99.90;;;;;;5141234;27;20453;-85
2021/07/06 04:02:58;;;;;;;5.80;1.10;;;19.10;99.90;;;;;;5130526;27;20516;-85
2021/07/06 04:05:26;;;;;;;6.30;1.33;;;19.10;99.90;;;;;;5127037;28;20533;-82
2021/07/06 04:07:53;;;;;;;7.83;1.37;;;19.10;99.90;;;;;;5126589;28;20449;-83
2021/07/06 04:10:20;;;;;;;6.53;1.60;;;19.10;99.90;;;;;;5127797;28;20477;-85
2021/07/06 04:12:49;;;;;;;7.57;1.43;;;19.10;99.90;;;;;;5127287;28;20476;-84
2021/07/06 04:15:17;;;;;;;7.33;1.20;;;19.20;99.90;;;;;;5127706;28;20480;-82
2021/07/06 04:17:44;;;;;;;5.67;1.00;;;19.20;99.90;;;;;;5127509;28;21027;-83
2021/07/06 04:20:13;;;;;;;8.50;1.50;;;19.30;99.90;;;;;;5127495;28;20513;-84
2021/07/06 04:22:40;;;;;;;9.37;1.23;;;19.30;99.90;;;;;;5122170;28;20524;-84
2021/07/06 04:25:09;;;;;;;5.90;1.20;;;19.40;99.90;;;;;;5121486;28;20437;-83
2021/07/06 04:27:36;;;;;;;7.93;1.40;;;19.40;99.90;;;;;;5118050;28;20430;-87
2021/07/06 04:30:06;;;;;;;6.83;1.23;;;19.40;99.90;;;;;;5116567;28;20839;-86
2021/07/06 04:32:33;;;;;;;6.33;1.47;;;19.50;99.90;;;;;;5117583;28;20450;-86
2021/07/06 04:35:00;;;;;;;6.20;1.33;;;19.60;99.90;;;;;;5120473;28;21080;-85
2021/07/06 04:37:27;;;;;;;6.00;1.10;;;19.60;99.90;;;;;;5127232;28;20473;-86
2021/07/06 04:39:57;;;;;;;7.33;1.40;;;19.70;99.90;;;;;;5126162;28;20434;-85
2021/07/06 04:42:24;;;;;;;6.50;1.40;;;19.70;99.90;;;;;;5126047;28;20968;-87
2021/07/06 04:44:51;;;;;;;7.73;1.10;;;19.80;99.90;;;;;;5113215;28;20520;-87
2021/07/06 04:47:20;;;;;;;6.70;1.50;;;19.90;99.90;;;;;;5123500;28;20495;-84
2021/07/06 04:49:52;;;;;;;8.47;1.47;;;19.90;99.90;;;;;;5125602;28;20437;-83
2021/07/06 04:52:31;;;;;;;7.57;1.30;;;20.00;99.90;;;;;;5122048;28;20441;-84
2021/07/06 04:55:07;;;;;;;7.37;1.33;;;20.00;99.90;;;;;;5127208;28;21223;-84
2021/07/06 04:57:39;;;;;;;7.77;1.60;;;20.10;99.90;;;;;;5121863;28;20475;-83
2021/07/06 05:00:16;;;;;;;6.47;1.20;;;20.20;99.90;;;;;;5122040;28;20445;-85
2021/07/06 05:02:48;;;;;;;7.70;1.30;;;20.20;99.90;;;;;;5124427;28;20985;-86
2021/07/06 05:05:18;;;;;;;6.70;1.40;;;20.30;99.90;;;;;;5123288;28;20952;-85
2021/07/06 05:07:45;;;;;;;6.93;1.33;;;20.30;99.90;;;;;;5119246;28;20850;-85
2021/07/06 05:10:13;;;;;;;8.00;1.40;;;20.20;99.90;;;;;;5118030;28;20530;-87
2021/07/06 05:12:40;;;;;;;8.83;1.23;;;20.20;99.90;;;;;;5117887;28;20449;-86
2021/07/06 05:15:09;;;;;;;7.90;1.57;;;20.30;99.90;;;;;;5116867;28;20492;-87
2021/07/06 05:17:36;;;;;;;6.80;1.50;;;20.30;99.90;;;;;;5117428;28;20475;-87
2021/07/06 05:20:05;;;;;;;7.43;1.57;;;20.30;99.90;;;;;;5117814;28;20609;-88
2021/07/06 05:22:32;;;;;;;9.00;1.50;;;20.30;99.90;;;;;;5118425;28;21020;-86
2021/07/06 05:24:59;;;;;;;6.50;1.40;;;20.30;99.90;;;;;;5117662;28;20448;-87
2021/07/06 05:27:26;;;;;;;7.03;1.20;;;20.20;99.90;;;;;;5116134;28;20465;-86
2021/07/06 05:29:53;;;;;;;7.33;1.80;;;20.20;99.90;;;;;;5117423;28;20456;-88
2021/07/06 05:32:21;;;;;;;6.83;1.83;;;20.20;99.90;;;;;;5117864;28;20459;-88
2021/07/06 05:34:49;;;;;;;7.73;1.33;;;20.10;99.90;;;;;;5116747;28;20488;-87
2021/07/06 05:37:17;;;;;;;7.77;2.00;;;20.10;99.90;;;;;;5119965;28;20560;-86
2021/07/06 05:39:44;;;;;;;16.10;1.90;;;20.00;99.90;;;;;;5121181;28;20532;-85
2021/07/06 05:42:11;;;;;;;9.20;1.93;;;20.00;99.90;;;;;;5126997;28;20453;-85
2021/07/06 05:44:39;;;;;;;7.70;1.50;;;20.00;99.90;;;;;;5124472;28;20545;-84
2021/07/06 05:47:07;;;;;;;9.50;1.77;;;19.90;99.90;;;;;;5122765;28;20541;-83
2021/07/06 05:49:34;;;;;;;9.90;2.07;;;19.70;99.90;;;;;;5124490;28;20446;-81
2021/07/06 05:52:01;;;;;;;6.57;1.60;;;19.60;99.90;;;;;;5122585;28;20449;-82
2021/07/06 05:54:29;;;;;;;7.83;2.20;;;19.50;99.90;;;;;;5119917;28;20576;-81
2021/07/06 05:56:56;;;;;;;6.03;1.80;;;19.40;99.90;;;;;;5120715;28;20473;-81
2021/07/06 05:59:23;;;;;;;5.90;1.60;;;19.20;99.90;;;;;;5123393;28;21044;-82
2021/07/06 06:01:50;;;;;;;11.03;2.10;;;19.10;99.90;;;;;;5119830;28;20450;-83
2021/07/06 06:04:17;;;;;;;8.03;2.07;;;19.00;99.90;;;;;;5099860;28;20452;-81
2021/07/06 06:06:46;;;;;;;7.70;2.60;;;19.00;99.90;;;;;;5098952;28;20478;-82
2021/07/06 06:09:13;;;;;;;8.83;2.90;;;18.90;99.90;;;;;;5097496;28;20460;-85
2021/07/06 06:11:41;;;;;;;7.10;1.90;;;18.80;99.90;;;;;;5108610;27;20446;-89
2021/07/06 06:14:08;;;;;;;7.47;1.90;;;18.80;99.90;;;;;;5127403;27;20850;-86
2021/07/06 06:16:35;;;;;;;9.37;2.03;;;18.70;99.90;;;;;;5119906;28;20547;-88
2021/07/06 06:19:02;;;;;;;7.10;2.47;;;18.60;99.90;;;;;;5115838;28;20460;-88
2021/07/06 06:21:29;;;;;;;6.40;2.00;;;18.60;99.90;;;;;;5115779;28;20453;-85
2021/07/06 06:23:57;;;;;;;6.50;1.97;;;18.60;99.90;;;;;;5114804;28;20456;-86
2021/07/06 06:26:24;;;;;;;7.67;2.00;;;18.60;99.90;;;;;;5114065;28;20480;-83
2021/07/06 06:28:52;;;;;;;7.40;2.07;;;18.50;99.90;;;;;;5114157;28;20449;-86
2021/07/06 06:31:19;;;;;;;9.43;2.40;;;18.50;99.90;;;;;;5113796;28;20481;-90
2021/07/06 06:33:51;;;;;;;9.10;2.00;;;18.50;99.90;;;;;;5115052;28;20448;-86
2021/07/06 06:36:17;;;;;;;9.23;1.90;;;18.50;99.90;;;;;;5115116;28;20530;-84
2021/07/06 06:38:44;;;;;;;9.10;2.73;;;18.50;99.90;;;;;;5113872;28;20445;-86
2021/07/06 06:41:12;;;;;;;7.90;2.07;;;18.50;99.90;;;;;;5116935;28;20457;-86
2021/07/06 06:43:39;;;;;;;6.77;1.63;;;18.40;99.90;;;;;;5116234;28;20442;-85
2021/07/06 06:46:07;;;;;;;7.97;2.33;;;18.40;99.90;;;;;;5117765;28;20501;-85
2021/07/06 06:48:34;;;;;;;5.60;1.37;;;18.40;99.90;;;;;;5117747;28;20453;-84
2021/07/06 06:51:01;;;;;;;6.90;1.83;;;18.40;99.90;;;;;;5117587;28;20509;-85
2021/07/06 06:53:27;;;;;;;5.13;1.20;;;18.30;99.90;;;;;;5119509;28;20434;-85
2021/07/06 06:55:54;;;;;;;5.90;1.40;;;18.30;99.90;;;;;;5118375;28;20556;-85
2021/07/06 06:58:21;;;;;;;5.60;1.50;;;18.20;99.90;;;;;;5118140;28;20444;-86
2021/07/06 07:00:48;;;;;;;6.00;1.60;;;18.20;99.90;;;;;;5119169;28;20537;-84
2021/07/06 07:03:17;;;;;;;5.60;1.20;;;18.20;99.90;;;;;;5127287;28;20440;-85
2021/07/06 07:05:43;;;;;;;7.73;1.90;;;18.20;99.90;;;;;;5118894;28;20473;-85
2021/07/06 07:08:10;;;;;;;5.90;1.40;;;18.30;99.90;;;;;;5136608;28;20414;-81
2021/07/06 07:10:39;;;;;;;5.27;1.30;;;18.30;99.90;;;;;;5133652;28;20505;-83
2021/07/06 07:13:06;;;;;;;6.03;1.40;;;18.20;99.90;;;;;;5133834;28;20452;-83
2021/07/06 07:15:33;;;;;;;5.30;1.30;;;18.20;99.90;;;;;;5134478;28;20481;-85
2021/07/06 07:18:00;;;;;;;6.80;1.50;;;18.30;99.90;;;;;;5121799;28;20449;-84
2021/07/06 07:20:28;;;;;;;7.53;1.70;;;18.30;99.90;;;;;;5119122;28;20543;-85
2021/07/06 07:23:03;;;;;;;5.93;1.80;;;18.30;99.90;;;;;;5133833;28;20454;-86
2021/07/06 07:25:32;;;;;;;6.80;1.70;;;18.30;99.90;;;;;;5135196;28;20468;-85
2021/07/06 07:27:59;;;;;;;6.80;1.60;;;18.30;99.90;;;;;;5121153;28;20476;-86
2021/07/06 07:30:26;;;;;;;6.20;1.70;;;18.30;99.90;;;;;;5123109;28;20513;-85
2021/07/06 07:33:01;;;;;;;5.60;1.43;;;18.40;99.90;;;;;;5115886;28;20724;-84
2021/07/06 07:35:31;;;;;;;5.80;1.57;;;18.50;99.90;;;;;;5118962;28;20487;-84
2021/07/06 07:37:58;;;;;;;6.23;1.57;;;18.60;99.90;;;;;;5111471;28;20454;-85
2021/07/06 07:40:39;;;;;;;6.30;1.80;;;18.70;99.90;;;;;;5116383;28;20445;-84
2021/07/06 07:43:13;;;;;;;6.87;2.03;;;18.70;99.90;;;;;;5118877;28;20445;-85
2021/07/06 07:45:40;;;;;;;6.20;1.90;;;18.80;99.90;;;;;;5114118;28;20481;-84
2021/07/06 07:48:10;;;;;;;6.50;1.77;;;18.90;99.90;;;;;;5107087;28;20933;-85
2021/07/06 07:50:38;;;;;;;5.97;1.57;;;18.90;99.90;;;;;;5107065;28;20470;-85
2021/07/06 07:53:05;;;;;;;6.20;1.63;;;18.80;99.90;;;;;;5120363;28;20505;-84
2021/07/06 07:55:32;;;;;;;5.67;1.70;;;18.90;99.90;;;;;;5126695;28;20484;-84
2021/07/06 07:57:59;;;;;;;6.07;1.80;;;19.00;99.90;;;;;;5123871;28;20496;-85
2021/07/06 08:00:26;;;;;;;6.03;1.67;;;19.10;99.90;;;;;;5117986;28;20477;-85
2021/07/06 08:02:53;;;;;;;6.90;1.80;;;19.10;99.90;;;;;;5119195;28;20965;-84
2021/07/06 08:05:20;;;;;;;6.37;1.53;;;19.20;99.90;;;;;;5117775;28;20469;-84
2021/07/06 08:07:48;;;;;;;5.90;1.50;;;19.10;99.90;;;;;;5117014;28;20481;-83
2021/07/06 08:10:16;;;;;;;5.40;1.50;;;19.10;99.90;;;;;;5125559;27;20459;-84
2021/07/06 08:12:43;;;;;;;6.70;1.60;;;19.00;99.90;;;;;;5133912;22;20456;-83
2021/07/06 08:15:10;;;;;;;6.47;1.80;;;19.10;99.90;;;;;;5126597;27;20857;-83
2021/07/06 08:17:37;;;;;;;6.23;1.90;;;19.10;99.90;;;;;;5136301;27;20536;-84
2021/07/06 08:20:06;;;;;;;11.37;1.87;;;19.20;99.90;;;;;;5132333;27;20444;-83
2021/07/06 08:22:33;;;;;;;5.77;1.60;;;19.30;99.90;;;;;;5134068;27;20862;-84
2021/07/06 08:25:01;;;;;;;6.80;1.60;;;19.40;99.90;;;;;;5107294;28;20515;-84
2021/07/06 08:27:27;;;;;;;7.10;1.77;;;19.40;99.90;;;;;;5115896;28;20444;-84
2021/07/06 08:29:55;;;;;;;6.30;1.80;;;19.40;99.90;;;;;;5109633;28;20452;-83
2021/07/06 08:32:21;;;;;;;7.40;1.77;;;19.50;99.90;;;;;;5104261;28;20452;-81
2021/07/06 08:34:48;;;;;;;6.57;1.93;;;19.50;99.90;;;;;;5109867;28;20879;-82
2021/07/06 08:37:15;;;;;;;6.13;1.90;;;19.60;99.90;;;;;;5110812;28;20517;-82
2021/07/06 08:39:42;;;;;;;5.67;1.57;;;19.60;99.90;;;;;;5108698;28;20443;-82
2021/07/06 08:42:10;;;;;;;7.07;1.90;;;19.70;99.90;;;;;;5116432;28;20461;-82
2021/07/06 08:44:38;;;;;;;5.50;1.60;;;19.80;99.90;;;;;;5108381;28;20465;-82
2021/07/06 08:47:07;;;;;;;7.00;1.70;;;19.90;99.90;;;;;;5109133;28;20454;-82
2021/07/06 08:49:35;;;;;;;6.20;1.60;;;20.10;99.90;;;;;;5116696;28;20456;-82
2021/07/06 08:52:04;;;;;;;5.80;1.70;;;20.20;99.90;;;;;;5103350;28;20453;-83
2021/07/06 08:54:31;;;;;;;6.03;1.70;;;20.30;99.90;;;;;;5111734;28;20529;-83
2021/07/06 08:56:58;;;;;;;5.97;1.20;;;20.50;99.90;;;;;;5110284;28;20841;-82
2021/07/06 08:59:26;;;;;;;6.80;1.70;;;20.50;99.90;;;;;;5107698;28;20454;-82
2021/07/06 09:01:52;;;;;;;6.57;1.37;;;20.60;99.90;;;;;;5119515;28;20449;-82
2021/07/06 09:04:19;;;;;;;6.73;1.97;;;20.70;99.90;;;;;;5119920;28;21004;-83
2021/07/06 09:06:57;;;;;;;10.10;2.20;;;20.80;99.90;;;;;;5119692;28;20532;-83
2021/07/06 09:09:26;;;;;;;7.03;1.83;;;20.80;99.90;;;;;;5119624;28;20442;-83
2021/07/06 09:11:54;;;;;;;7.53;1.70;;;20.90;99.90;;;;;;5119985;28;20457;-82
2021/07/06 09:14:25;;;;;;;5.83;1.40;;;20.70;99.90;;;;;;5119605;28;20479;-83
2021/07/06 09:16:54;;;;;;;6.97;1.43;;;20.80;99.90;;;;;;5119334;28;20491;-83
2021/07/06 09:19:23;;;;;;;7.00;1.80;;;20.70;99.90;;;;;;5107386;28;20536;-82
2021/07/06 09:22:12;;;;;;;7.30;1.40;;;20.70;99.90;;;;;;5101963;28;20453;-81
2021/07/06 09:24:40;;;;;;;6.30;1.40;;;20.70;99.90;;;;;;5113913;28;20460;-82
2021/07/06 09:27:25;;;;;;;6.87;1.20;;;20.80;99.90;;;;;;5105290;28;20525;-83
2021/07/06 09:30:12;;;;;;;6.17;1.60;;;20.80;99.90;;;;;;5106084;28;20456;-82
2021/07/06 09:32:42;;;;;;;7.90;1.20;;;21.00;99.90;;;;;;5111234;28;20525;-82
2021/07/06 09:35:11;;;;;;;7.10;1.10;;;21.10;99.90;;;;;;5110832;28;22785;-83
2021/07/06 09:37:55;;;;;;;7.43;1.30;;;21.10;99.90;;;;;;5118627;28;20932;-80
2021/07/06 09:40:30;;;;;;;10.23;1.43;;;20.90;99.90;;;;;;5105992;28;20450;-81
2021/07/06 09:43:18;;;;;;;6.40;1.10;;;21.10;99.90;;;;;;5103143;28;20464;-80
2021/07/06 09:45:52;;;;;;;6.10;0.90;;;21.20;99.90;;;;;;5116937;28;20445;-80
2021/07/06 09:48:20;;;;;;;6.60;1.23;;;21.20;99.90;;;;;;5121873;27;20454;-80
2021/07/06 09:50:47;;;;;;;7.13;1.40;;;21.20;99.90;;;;;;5100373;28;20446;-81
2021/07/06 09:53:28;;;;;;;6.40;1.10;;;21.20;99.90;;;;;;5098301;28;20890;-83
2021/07/06 09:55:55;;;;;;;7.70;1.30;;;21.10;99.90;;;;;;5103398;28;20859;-84
2021/07/06 09:58:23;;;;;;;6.40;1.40;;;21.10;99.90;;;;;;5108113;27;20486;-80
2021/07/06 10:00:50;;;;;;;8.20;1.07;;;21.20;99.90;;;;;;5117996;27;20532;-82
2021/07/06 10:03:18;;;;;;;10.87;1.10;;;21.30;99.90;;;;;;5100971;28;20469;-82
2021/07/06 10:05:50;;;;;;;8.03;1.60;;;21.30;99.90;;;;;;5112812;28;20448;-82
2021/07/06 10:08:18;;;;;;;6.20;1.30;;;21.30;99.90;;;;;;5101602;28;21008;-80
2021/07/06 10:10:45;;;;;;;6.23;1.30;;;21.40;99.90;;;;;;5106790;28;20535;-81
2021/07/06 10:13:13;;;;;;;6.80;1.30;;;21.30;99.90;;;;;;5109992;28;20473;-81
2021/07/06 10:15:41;;;;;;;6.40;1.03;;;21.40;99.90;;;;;;5099621;28;20936;-82
2021/07/06 10:18:09;;;;;;;10.30;1.23;;;21.10;99.90;;;;;;5111375;28;20445;-80
2021/07/06 10:20:37;;;;;;;6.57;1.30;;;21.10;99.90;;;;;;5106031;28;20823;-80
2021/07/06 10:23:06;;;;;;;8.00;1.43;;;21.10;99.90;;;;;;5109054;28;20513;-81
2021/07/06 10:25:35;;;;;;;6.37;1.00;;;21.00;99.90;;;;;;5106013;28;20437;-81
2021/07/06 10:28:04;;;;;;;6.30;1.00;;;21.00;99.90;;;;;;5099350;28;20922;-80
2021/07/06 10:30:39;;;;;;;6.23;1.33;;;21.10;99.90;;;;;;5106696;28;20460;-80
2021/07/06 10:33:10;;;;;;;9.00;1.10;;;21.10;99.90;;;;;;5100625;28;20474;-82
2021/07/06 10:35:49;;;;;;;6.43;1.40;;;21.10;99.90;;;;;;5108382;28;20485;-81
2021/07/06 10:38:44;;;;;;;6.47;1.13;;;21.30;99.90;;;;;;5099828;28;20940;-79
2021/07/06 10:41:14;;;;;;;6.93;1.13;;;21.40;99.90;;;;;;5110489;28;20441;-80
2021/07/06 10:43:55;;;;;;;7.40;1.10;;;21.60;99.90;;;;;;5106215;28;20475;-80
2021/07/06 10:46:45;;;;;;;8.03;1.23;;;21.60;99.90;;;;;;5114475;27;20441;-81
2021/07/06 10:49:15;;;;;;;6.63;1.10;;;21.70;99.90;;;;;;5097917;28;20564;-80
2021/07/06 10:51:52;;;;;;;8.67;1.60;;;21.80;99.90;;;;;;5115020;27;21004;-84
2021/07/06 10:54:32;;;;;;;8.40;1.40;;;21.90;99.90;;;;;;5114465;28;20500;-80
2021/07/06 10:57:12;;;;;;;9.77;1.10;;;22.40;99.90;;;;;;5125346;28;20479;-80
2021/07/06 10:59:39;;;;;;;11.00;1.50;;;23.10;99.90;;;;;;5117111;28;20484;-81
2021/07/06 11:02:07;;;;;;;13.33;1.20;;;23.80;99.90;;;;;;5113634;28;20456;-81
2021/07/06 11:05:07;;;;;;;19.43;3.33;;;24.40;99.90;;;;;;5105604;28;20466;-81
2021/07/06 11:07:54;;;;;;;17.83;1.47;;;24.60;99.90;;;;;;5112953;28;20532;-81
2021/07/06 11:10:35;;;;;;;13.23;1.37;;;25.00;99.90;;;;;;5119078;28;20497;-82
2021/07/06 11:13:20;;;;;;;17.00;1.40;;;24.80;99.90;;;;;;5114822;28;20847;-80
2021/07/06 11:15:47;;;;;;;16.30;1.67;;;24.60;99.90;;;;;;5116437;28;20538;-81
2021/07/06 11:18:15;;;;;;;13.20;1.70;;;24.30;99.90;;;;;;5119016;28;20971;-81
2021/07/06 11:20:44;;;;;;;15.33;1.33;;;24.00;99.90;;;;;;5116095;28;20445;-82
2021/07/06 11:23:16;;;;;;;14.30;1.53;;;24.10;99.90;;;;;;5115004;28;20467;-82
2021/07/06 11:25:46;;;;;;;19.87;1.50;;;24.20;99.90;;;;;;5113065;28;20536;-82
2021/07/06 11:28:18;;;;;;;20.80;1.10;;;24.70;99.90;;;;;;5116650;28;20441;-82
2021/07/06 11:30:47;;;;;;;40.63;6.63;;;25.10;99.90;;;;;;5112429;28;20472;-82
2021/07/06 11:33:16;;;;;;;458.33;431.37;;;25.60;99.90;;;;;;5110101;28;20465;-81
2021/07/06 11:35:45;;;;;;;1999.90;999.90;;;25.80;99.90;;;;;;5106310;28;20508;-82
2021/07/06 11:38:14;;;;;;;1999.90;999.90;;;26.20;99.90;;;;;;5111492;28;20446;-79
2021/07/06 11:40:43;;;;;;;1999.90;999.90;;;26.20;99.90;;;;;;5110710;28;20445;-82
2021/07/06 11:43:14;;;;;;;1999.90;999.90;;;26.40;99.90;;;;;;5112735;28;20560;-81
2021/07/06 11:45:42;;;;;;;1999.90;999.90;;;26.70;99.90;;;;;;5111820;28;20444;-81
2021/07/06 11:48:11;;;;;;;1999.90;999.90;;;26.40;99.90;;;;;;5117203;28;20447;-79
2021/07/06 11:50:40;;;;;;;1999.90;999.90;;;26.40;99.90;;;;;;5102623;28;20449;-80
2021/07/06 11:53:08;;;;;;;1999.90;999.90;;;26.40;99.90;;;;;;5114907;28;20501;-80
2021/07/06 11:55:38;;;;;;;1999.90;999.90;;;26.80;99.90;;;;;;5117172;28;20468;-84
2021/07/06 11:58:08;;;;;;;1999.90;999.90;;;27.20;99.90;;;;;;5114040;28;20453;-81
2021/07/06 12:00:40;;;;;;;1999.90;999.90;;;27.00;99.90;;;;;;5110321;28;20453;-82
2021/07/06 12:03:25;;;;;;;1999.90;999.90;;;26.90;99.90;;;;;;5105548;28;20523;-83
2021/07/06 12:05:54;;;;;;;1999.90;999.90;;;26.90;99.90;;;;;;5104399;28;20506;-81
2021/07/06 12:08:23;;;;;;;1999.90;999.90;;;26.50;99.90;;;;;;5110415;28;20445;-81
2021/07/06 12:11:00;;;;;;;1999.90;999.90;;;25.90;99.90;;;;;;5117945;27;20445;-81
2021/07/06 12:13:28;;;;;;;1999.90;999.90;;;25.40;99.90;;;;;;5116137;28;20473;-81
2021/07/06 12:16:02;;;;;;;1999.90;999.90;;;25.30;99.90;;;;;;5119824;28;20493;-82
2021/07/06 12:18:31;;;;;;;1999.90;999.90;;;25.40;99.90;;;;;;5107254;28;20583;-81
2021/07/06 12:21:01;;;;;;;1999.90;999.90;;;26.10;99.90;;;;;;5131480;27;21066;-80
2021/07/06 12:23:28;;;;;;;1999.90;999.90;;;26.30;99.90;;;;;;5111457;28;20469;-82
2021/07/06 12:25:59;;;;;;;1999.90;999.90;;;25.90;99.90;;;;;;5116808;28;20907;-81
2021/07/06 12:28:27;;;;;;;1999.90;999.90;;;26.00;99.90;;;;;;5121711;28;20445;-82
2021/07/06 12:31:21;;;;;;;1999.90;999.90;;;26.00;99.90;;;;;;5103012;28;20441;-82
2021/07/06 12:34:04;;;;;;;1999.90;999.90;;;26.60;99.90;;;;;;5102096;28;20462;-82
2021/07/06 12:36:34;;;;;;;1999.90;999.90;;;27.90;99.90;;;;;;5107470;28;20480;-82
2021/07/06 12:39:19;;;;;;;1999.90;999.90;;;28.30;99.90;;;;;;5124068;28;20518;-83
2021/07/06 12:41:48;;;;;;;1999.90;999.90;;;28.10;99.90;;;;;;5125869;27;20448;-83
2021/07/06 12:44:28;;;;;;;1999.90;999.90;;;27.80;99.90;;;;;;5122193;28;20477;-81
2021/07/06 12:47:10;;;;;;;1999.90;999.90;;;27.40;99.90;;;;;;5120669;28;20418;-83
2021/07/06 12:49:39;;;;;;;1374.47;703.40;;;27.40;99.90;;;;;;5122747;28;20506;-81
2021/07/06 12:52:10;;;;;;;1999.90;999.90;;;28.40;99.90;;;;;;5119746;28;20449;-82
2021/07/06 12:54:39;;;;;;;1999.90;999.90;;;28.80;99.90;;;;;;5119030;28;20496;-84